createdAt,value
2023-05-15T00:00:44.488Z,6.35
2023-05-15T00:03:13.174Z,6.65
2023-05-15T00:05:41.655Z,6.38
2023-05-15T00:08:09.861Z,6.35
2023-05-15T00:10:39.331Z,6.68
2023-05-15T00:13:10.540Z,6.40
2023-05-15T00:15:38.744Z,7.00
2023-05-15T00:18:07.249Z,6.80
2023-05-15T00:20:35.730Z,6.28
2023-05-15T00:23:03.991Z,6.55
2023-05-15T00:25:32.262Z,6.18
2023-05-15T00:28:00.594Z,6.28
2023-05-15T00:30:32.138Z,5.57
2023-05-15T00:33:01.112Z,5.70
2023-05-15T00:35:29.525Z,6.15
2023-05-15T00:37:58.818Z,5.78
2023-05-15T00:40:28.817Z,5.70
2023-05-15T00:42:57.377Z,4.80
2023-05-15T00:45:26.540Z,5.35
2023-05-15T00:47:58.930Z,5.90
2023-05-15T00:50:27.830Z,6.13
2023-05-15T00:52:56.713Z,6.28
2023-05-15T00:55:26.719Z,6.75
2023-05-15T00:57:57.812Z,7.20
2023-05-15T01:01:09.665Z,6.72
2023-05-15T01:03:39.966Z,6.65
2023-05-15T01:06:08.485Z,6.57
2023-05-15T01:08:40.130Z,6.32
2023-05-15T01:11:09.980Z,6.22
2023-05-15T01:13:38.184Z,6.70
2023-05-15T01:16:07.421Z,7.00
2023-05-15T01:18:36.191Z,6.75
2023-05-15T01:21:28.880Z,6.57
2023-05-15T01:24:09.979Z,5.90
2023-05-15T01:27:07.904Z,6.40
2023-05-15T01:29:43.100Z,6.00
2023-05-15T01:32:14.898Z,5.90
2023-05-15T01:34:49.643Z,5.88
2023-05-15T01:37:23.353Z,5.93
2023-05-15T01:39:57.055Z,6.15
2023-05-15T01:42:31.771Z,6.60
2023-05-15T01:45:06.238Z,6.40
2023-05-15T01:47:39.229Z,6.95
2023-05-15T01:50:11.042Z,6.82
2023-05-15T01:52:44.032Z,7.85
2023-05-15T01:55:14.825Z,6.88
2023-05-15T01:57:43.791Z,7.43
2023-05-15T02:00:17.062Z,7.88
2023-05-15T02:02:46.161Z,7.97
2023-05-15T02:05:15.386Z,8.45
2023-05-15T02:07:45.087Z,8.35
2023-05-15T02:10:14.212Z,8.15
2023-05-15T02:12:48.486Z,9.60
2023-05-15T02:15:18.606Z,9.05
2023-05-15T02:17:48.396Z,9.30
2023-05-15T02:20:16.788Z,9.52
2023-05-15T02:22:44.969Z,9.48
2023-05-15T02:25:13.132Z,10.07
2023-05-15T02:27:49.465Z,10.50
2023-05-15T02:30:30.714Z,10.30
2023-05-15T02:33:09.136Z,10.40
2023-05-15T02:35:46.896Z,9.35
2023-05-15T02:38:18.252Z,10.40
2023-05-15T02:40:49.354Z,10.45
2023-05-15T02:43:20.130Z,11.20
2023-05-15T02:45:50.702Z,11.63
2023-05-15T02:48:19.560Z,11.82
2023-05-15T02:50:47.844Z,12.00
2023-05-15T02:53:16.425Z,12.65
2023-05-15T02:55:44.637Z,12.55
2023-05-15T02:58:13.027Z,14.35
2023-05-15T03:00:41.245Z,15.25
2023-05-15T03:03:10.857Z,14.70
2023-05-15T03:05:38.952Z,14.93
2023-05-15T03:08:07.302Z,15.52
2023-05-15T03:10:35.618Z,15.25
2023-05-15T03:13:04.172Z,15.85
2023-05-15T03:15:32.356Z,16.08
2023-05-15T03:18:00.623Z,16.42
2023-05-15T03:20:30.438Z,17.00
2023-05-15T03:22:58.747Z,16.08
2023-05-15T03:25:27.410Z,15.40
2023-05-15T03:27:55.729Z,14.70
2023-05-15T03:30:24.084Z,14.45
2023-05-15T03:32:52.478Z,14.40
2023-05-15T03:35:20.853Z,15.02
2023-05-15T03:37:50.594Z,15.52
2023-05-15T03:40:18.914Z,15.77
2023-05-15T03:42:47.101Z,17.15
2023-05-15T03:45:15.242Z,16.70
2023-05-15T03:47:43.476Z,16.98
2023-05-15T03:50:12.416Z,16.65
2023-05-15T03:52:42.241Z,17.52
2023-05-15T03:55:12.382Z,16.30
2023-05-15T03:57:46.578Z,17.25
2023-05-15T04:00:16.910Z,16.20
2023-05-15T04:02:45.964Z,17.15
2023-05-15T04:05:14.322Z,16.80
2023-05-15T04:07:45.349Z,16.30
2023-05-15T04:10:15.113Z,15.38
2023-05-15T04:12:43.354Z,15.55
2023-05-15T04:15:18.799Z,15.70
2023-05-15T04:17:48.228Z,15.05
2023-05-15T04:20:17.770Z,15.13
2023-05-15T04:22:46.780Z,15.52
2023-05-15T04:25:18.183Z,14.60
2023-05-15T04:27:49.380Z,15.23
2023-05-15T04:30:17.747Z,15.50
2023-05-15T04:32:52.008Z,15.25
2023-05-15T04:35:20.380Z,15.45
2023-05-15T04:37:48.918Z,14.45
2023-05-15T04:40:19.815Z,14.15
2023-05-15T04:42:48.312Z,15.07
2023-05-15T04:45:18.858Z,14.32
2023-05-15T04:47:47.171Z,14.93
2023-05-15T04:50:15.360Z,15.10
2023-05-15T04:52:45.743Z,15.02
2023-05-15T04:55:13.983Z,14.52
2023-05-15T04:57:43.892Z,15.30
2023-05-15T05:00:13.466Z,16.10
2023-05-15T05:02:43.227Z,16.08
2023-05-15T05:05:11.467Z,15.95
2023-05-15T05:07:39.703Z,16.35
2023-05-15T05:10:09.400Z,15.05
2023-05-15T05:12:37.744Z,15.05
2023-05-15T05:15:08.832Z,15.02
2023-05-15T05:17:39.141Z,14.82
2023-05-15T05:20:12.929Z,14.65
2023-05-15T05:22:42.597Z,14.93
2023-05-15T05:25:11.317Z,13.73
2023-05-15T05:27:39.480Z,14.90
2023-05-15T05:30:10.474Z,14.27
2023-05-15T05:32:39.520Z,13.30
2023-05-15T05:35:08.198Z,13.88
2023-05-15T05:37:37.571Z,15.02
2023-05-15T05:40:08.870Z,14.43
2023-05-15T05:42:37.175Z,15.00
2023-05-15T05:45:10.382Z,15.10
2023-05-15T05:47:40.174Z,15.27
2023-05-15T05:50:09.737Z,15.95
2023-05-15T05:52:38.131Z,15.00
2023-05-15T05:55:07.130Z,15.02
2023-05-15T05:57:35.367Z,15.35
2023-05-15T06:00:04.315Z,14.65
2023-05-15T06:02:38.364Z,13.77
2023-05-15T06:05:09.456Z,13.70
2023-05-15T06:07:40.255Z,12.93
2023-05-15T06:10:09.902Z,11.77
2023-05-15T06:12:38.585Z,10.68
2023-05-15T06:15:08.099Z,9.93
2023-05-15T06:17:36.790Z,10.40
2023-05-15T06:20:07.104Z,10.88
2023-05-15T06:22:37.723Z,11.27
2023-05-15T06:25:07.157Z,11.63
2023-05-15T06:27:35.833Z,11.18
2023-05-15T06:30:04.265Z,10.70
2023-05-15T06:32:34.585Z,10.93
2023-05-15T06:35:03.129Z,11.80
2023-05-15T06:37:31.631Z,11.13
2023-05-15T06:40:01.401Z,9.95
2023-05-15T06:42:29.711Z,9.10
2023-05-15T06:44:58.388Z,8.30
2023-05-15T06:47:26.803Z,9.18
2023-05-15T06:49:55.627Z,8.73
2023-05-15T06:52:23.982Z,9.25
2023-05-15T06:54:53.152Z,8.43
2023-05-15T06:57:22.801Z,9.23
2023-05-15T06:59:51.129Z,8.85
2023-05-15T07:02:19.559Z,8.98
2023-05-15T07:04:47.907Z,9.32
2023-05-15T07:07:16.192Z,8.98
2023-05-15T07:09:48.375Z,7.65
2023-05-15T07:12:16.716Z,8.13
2023-05-15T07:14:46.653Z,8.73
2023-05-15T07:17:14.957Z,8.38
2023-05-15T07:19:43.383Z,8.05
2023-05-15T07:22:15.794Z,7.60
2023-05-15T07:24:43.984Z,7.40
2023-05-15T07:27:12.322Z,7.00
2023-05-15T07:29:40.673Z,7.10
2023-05-15T07:32:10.588Z,7.22
2023-05-15T07:34:39.215Z,6.93
2023-05-15T07:37:07.513Z,6.38
2023-05-15T07:39:35.845Z,6.55
2023-05-15T07:42:04.263Z,6.43
2023-05-15T07:44:32.605Z,6.55
2023-05-15T07:47:00.997Z,5.88
2023-05-15T07:49:31.042Z,6.75
2023-05-15T07:51:59.459Z,6.97
2023-05-15T07:54:28.014Z,6.90
2023-05-15T07:56:56.509Z,6.75
2023-05-15T07:59:24.924Z,6.90
2023-05-15T08:01:53.268Z,6.28
2023-05-15T08:04:21.774Z,6.35
2023-05-15T08:06:51.595Z,6.53
2023-05-15T08:09:19.900Z,7.13
2023-05-15T08:11:47.983Z,7.78
2023-05-15T08:14:16.103Z,6.53
2023-05-15T08:16:44.439Z,6.18
2023-05-15T08:19:12.805Z,6.60
2023-05-15T08:21:41.076Z,5.50
2023-05-15T08:24:10.876Z,5.20
2023-05-15T08:26:39.161Z,5.85
2023-05-15T08:29:07.499Z,4.57
2023-05-15T08:31:36.468Z,3.92
2023-05-15T08:34:04.742Z,3.47
2023-05-15T08:36:33.815Z,3.70
2023-05-15T08:39:01.973Z,3.50
2023-05-15T08:44:06.858Z,3.00
2023-05-15T08:46:36.405Z,3.03
2023-05-15T08:49:13.731Z,2.75
2023-05-15T08:51:42.440Z,2.80
2023-05-15T08:54:11.856Z,2.95
2023-05-15T08:56:41.866Z,2.80
2023-05-15T08:59:10.254Z,2.65
2023-05-15T09:01:39.414Z,2.70
2023-05-15T09:04:07.834Z,2.70
2023-05-15T09:06:37.177Z,2.40
2023-05-15T09:09:06.483Z,2.55
2023-05-15T09:11:36.232Z,2.42
2023-05-15T09:14:07.600Z,2.70
2023-05-15T09:16:36.106Z,2.33
2023-05-15T09:19:04.745Z,2.25
2023-05-15T09:21:33.300Z,2.67
2023-05-15T09:24:20.630Z,3.10
2023-05-15T09:27:02.534Z,3.20
2023-05-15T09:29:33.839Z,3.13
2023-05-15T09:32:05.512Z,3.22
2023-05-15T09:34:36.050Z,4.05
2023-05-15T09:37:06.507Z,2.90
2023-05-15T09:39:35.323Z,2.65
2023-05-15T09:42:08.159Z,2.70
2023-05-15T09:44:42.821Z,2.28
2023-05-15T09:47:13.935Z,2.30
2023-05-15T09:49:45.762Z,2.05
2023-05-15T09:52:14.366Z,2.10
2023-05-15T09:54:48.171Z,2.38
2023-05-15T09:57:22.957Z,2.33
2023-05-15T09:59:52.591Z,2.13
2023-05-15T10:02:25.173Z,1.80
2023-05-15T10:04:57.593Z,2.25
2023-05-15T10:07:30.224Z,2.00
2023-05-15T10:09:58.642Z,1.80
2023-05-15T10:12:27.047Z,1.90
2023-05-15T10:14:58.616Z,2.42
2023-05-15T10:17:28.732Z,2.42
2023-05-15T10:20:00.769Z,2.38
2023-05-15T10:22:31.796Z,2.33
2023-05-15T10:25:03.999Z,2.33
2023-05-15T10:27:35.456Z,2.25
2023-05-15T10:30:06.536Z,2.30
2023-05-15T10:32:36.129Z,1.98
2023-05-15T10:35:04.672Z,2.33
2023-05-15T10:37:33.872Z,1.80
2023-05-15T10:40:03.294Z,1.90
2023-05-15T10:42:32.990Z,1.70
2023-05-15T10:45:03.234Z,1.77
2023-05-15T10:47:34.166Z,2.15
2023-05-15T10:50:03.000Z,1.75
2023-05-15T10:52:33.457Z,1.45
2023-05-15T10:55:03.682Z,1.67
2023-05-15T10:57:32.270Z,1.50
2023-05-15T11:00:02.235Z,1.75
2023-05-15T11:02:33.440Z,1.48
2023-05-15T11:05:03.733Z,1.58
2023-05-15T11:07:32.000Z,1.20
2023-05-15T11:10:00.798Z,1.13
2023-05-15T11:12:58.907Z,1.42
2023-05-15T11:15:43.296Z,1.13
2023-05-15T11:18:13.210Z,0.93
2023-05-15T11:20:43.405Z,1.00
2023-05-15T11:23:11.843Z,0.80
2023-05-15T11:25:40.729Z,1.10
2023-05-15T11:28:23.041Z,1.30
2023-05-15T11:30:53.381Z,1.23
2023-05-15T11:33:23.132Z,1.13
2023-05-15T11:35:59.542Z,1.13
2023-05-15T11:38:28.502Z,1.10
2023-05-15T11:40:59.071Z,1.27
2023-05-15T11:43:28.649Z,1.10
2023-05-15T11:45:58.258Z,1.27
2023-05-15T11:48:33.952Z,1.00
2023-05-15T11:51:06.408Z,1.10
2023-05-15T11:53:35.055Z,1.02
2023-05-15T11:56:03.316Z,1.00
2023-05-15T11:58:32.021Z,1.00
2023-05-15T12:01:00.458Z,1.10
2023-05-15T12:03:36.381Z,0.90
2023-05-15T12:06:05.309Z,0.80
2023-05-15T12:08:37.683Z,1.00
2023-05-15T12:11:06.364Z,0.90
2023-05-15T12:13:35.785Z,0.90
2023-05-15T12:16:05.639Z,0.82
2023-05-15T12:18:35.547Z,0.90
2023-05-15T12:21:11.462Z,1.00
2023-05-15T12:23:39.847Z,0.90
2023-05-15T12:26:12.343Z,0.90
2023-05-15T12:28:40.863Z,0.80
2023-05-15T12:31:12.642Z,0.82
2023-05-15T12:33:42.272Z,0.90
2023-05-15T12:36:10.777Z,1.00
2023-05-15T12:38:39.088Z,1.13
2023-05-15T12:41:07.435Z,1.00
2023-05-15T12:43:35.554Z,0.73
2023-05-15T12:46:03.744Z,1.38
2023-05-15T12:48:34.325Z,1.00
2023-05-15T12:51:08.323Z,1.00
2023-05-15T12:53:39.841Z,0.90
2023-05-15T12:56:09.746Z,0.75
2023-05-15T12:58:38.674Z,0.90
2023-05-15T13:01:07.316Z,0.90
2023-05-15T13:03:36.141Z,0.98
2023-05-15T13:06:04.817Z,0.70
2023-05-15T13:08:34.463Z,0.80
2023-05-15T13:11:02.826Z,0.80
2023-05-15T13:13:44.786Z,1.15
2023-05-15T13:16:25.357Z,1.00
2023-05-15T13:18:53.855Z,1.05
2023-05-15T13:21:23.263Z,0.93
2023-05-15T13:23:53.163Z,1.10
2023-05-15T13:26:21.887Z,0.93
2023-05-15T13:28:50.085Z,1.00
2023-05-15T13:31:20.511Z,1.10
2023-05-15T13:33:49.247Z,0.80
2023-05-15T13:36:17.584Z,0.90
2023-05-15T13:38:48.796Z,0.90
2023-05-15T13:41:18.545Z,1.05
2023-05-15T13:43:47.958Z,1.27
2023-05-15T13:46:16.646Z,1.20
2023-05-15T13:48:44.948Z,1.08
2023-05-15T13:51:13.293Z,1.00
2023-05-15T13:53:41.797Z,1.30
2023-05-15T13:56:10.084Z,1.00
2023-05-15T13:58:41.322Z,1.10
2023-05-15T14:01:09.674Z,1.20
2023-05-15T14:03:38.091Z,1.00
2023-05-15T14:06:06.785Z,1.50
2023-05-15T14:08:35.154Z,1.00
2023-05-15T14:11:03.509Z,1.40
2023-05-15T14:13:31.916Z,1.40
2023-05-15T14:16:03.513Z,1.30
2023-05-15T14:18:32.214Z,1.40
2023-05-15T14:21:00.778Z,1.10
2023-05-15T14:23:30.046Z,1.10
2023-05-15T14:25:58.241Z,1.27
2023-05-15T14:28:26.471Z,1.50
2023-05-15T14:30:55.082Z,1.50
2023-05-15T14:33:24.810Z,1.30
2023-05-15T14:35:53.010Z,1.20
2023-05-15T14:38:21.751Z,1.50
2023-05-15T14:40:50.146Z,1.20
2023-05-15T14:43:18.415Z,1.35
2023-05-15T14:45:46.763Z,1.40
2023-05-15T14:48:15.987Z,1.40
2023-05-15T14:50:46.748Z,1.38
2023-05-15T14:53:15.125Z,1.30
2023-05-15T14:55:46.390Z,1.17
2023-05-15T14:58:15.702Z,0.98
2023-05-15T15:00:44.229Z,1.00
2023-05-15T15:03:12.604Z,1.30
2023-05-15T15:05:42.107Z,1.20
2023-05-15T15:08:12.590Z,1.27
2023-05-15T15:10:43.550Z,1.30
2023-05-15T15:13:13.959Z,1.17
2023-05-15T15:15:42.415Z,1.35
2023-05-15T15:18:12.574Z,1.00
2023-05-15T15:20:44.044Z,0.90
2023-05-15T15:23:15.920Z,1.10
2023-05-15T15:25:44.320Z,1.65
2023-05-15T15:28:12.781Z,1.40
2023-05-15T15:30:41.569Z,1.40
2023-05-15T15:33:10.023Z,1.50
2023-05-15T15:35:38.356Z,0.98
2023-05-15T15:38:06.786Z,1.02
2023-05-15T15:40:36.455Z,1.52
2023-05-15T15:43:04.768Z,0.90
2023-05-15T15:45:33.047Z,0.85
2023-05-15T15:48:03.621Z,0.75
2023-05-15T15:50:31.960Z,1.00
2023-05-15T15:53:00.330Z,0.80
2023-05-15T15:55:29.052Z,0.60
2023-05-15T15:57:59.417Z,0.65
2023-05-15T16:00:27.948Z,0.90
2023-05-15T16:02:56.324Z,0.80
2023-05-15T16:05:24.590Z,0.57
2023-05-15T16:07:52.767Z,0.43
2023-05-15T16:10:21.027Z,0.60
2023-05-15T16:12:49.368Z,0.60
2023-05-15T16:15:23.029Z,0.60
2023-05-15T16:17:54.309Z,0.70
2023-05-15T16:20:23.477Z,0.60
2023-05-15T16:22:52.006Z,0.52
2023-05-15T16:25:20.805Z,0.90
2023-05-15T16:27:48.981Z,0.50
2023-05-15T16:30:18.787Z,0.98
2023-05-15T16:32:48.649Z,0.50
2023-05-15T16:35:17.205Z,0.60
2023-05-15T16:37:45.486Z,0.50
2023-05-15T16:40:14.328Z,0.75
2023-05-15T16:42:43.214Z,0.57
2023-05-15T16:45:11.712Z,0.60
2023-05-15T16:47:41.445Z,0.80
2023-05-15T16:50:10.472Z,0.60
2023-05-15T16:52:45.477Z,0.50
2023-05-15T16:55:15.872Z,0.73
2023-05-15T16:57:48.796Z,1.63
2023-05-15T17:00:17.795Z,0.98
2023-05-15T17:02:49.907Z,0.50
2023-05-15T17:05:18.347Z,0.50
2023-05-15T17:07:46.876Z,0.43
2023-05-15T17:10:15.612Z,0.60
2023-05-15T17:12:44.070Z,0.60
2023-05-15T17:15:13.130Z,0.45
2023-05-15T17:17:41.579Z,0.52
2023-05-15T17:20:12.938Z,1.77
2023-05-15T17:22:41.581Z,2.40
2023-05-15T17:25:10.393Z,1.55
2023-05-15T17:27:41.435Z,0.63
2023-05-15T17:30:10.810Z,0.70
2023-05-15T17:32:40.356Z,0.80
2023-05-15T17:35:09.411Z,0.80
2023-05-15T17:37:39.229Z,1.00
2023-05-15T17:40:08.952Z,0.98
2023-05-15T17:42:37.448Z,1.10
2023-05-15T17:45:06.570Z,1.10
2023-05-15T17:47:35.276Z,1.38
2023-05-15T17:50:03.658Z,2.60
2023-05-15T17:52:32.405Z,1.70
2023-05-15T17:55:02.345Z,1.70
2023-05-15T17:57:30.958Z,1.77
2023-05-15T17:59:59.301Z,2.40
2023-05-15T18:02:27.533Z,3.28
2023-05-15T18:04:56.346Z,2.80
2023-05-15T18:07:24.517Z,2.50
2023-05-15T18:09:53.260Z,3.40
2023-05-15T18:12:23.122Z,4.95
2023-05-15T18:14:51.399Z,6.03
2023-05-15T18:17:22.265Z,6.78
2023-05-15T18:19:50.510Z,5.10
2023-05-15T18:22:19.958Z,2.88
2023-05-15T18:24:48.245Z,4.10
2023-05-15T18:27:16.722Z,4.78
2023-05-15T18:29:46.342Z,4.43
2023-05-15T18:32:14.648Z,5.43
2023-05-15T18:34:42.890Z,5.05
2023-05-15T18:37:11.127Z,4.25
2023-05-15T18:39:40.055Z,3.22
2023-05-15T18:42:08.838Z,3.10
2023-05-15T18:44:38.033Z,2.92
2023-05-15T18:47:10.095Z,2.55
2023-05-15T18:49:41.727Z,2.60
2023-05-15T18:52:12.529Z,2.60
2023-05-15T18:54:42.162Z,2.10
2023-05-15T18:57:13.244Z,2.08
2023-05-15T18:59:42.164Z,2.10
2023-05-15T19:02:12.041Z,2.80
2023-05-15T19:04:40.918Z,2.10
2023-05-15T19:07:09.311Z,1.98
2023-05-15T19:09:37.565Z,2.78
2023-05-15T19:12:06.672Z,4.80
2023-05-15T19:14:35.265Z,5.22
2023-05-15T19:17:04.335Z,3.55
2023-05-15T19:19:34.753Z,2.58
2023-05-15T19:22:03.302Z,1.73
2023-05-15T19:24:33.341Z,2.10
2023-05-15T19:27:04.097Z,1.80
2023-05-15T19:29:34.285Z,1.63
2023-05-15T19:32:03.182Z,1.60
2023-05-15T19:34:31.608Z,1.50
2023-05-15T19:37:02.454Z,1.40
2023-05-15T19:39:30.706Z,1.85
2023-05-15T19:41:59.316Z,1.75
2023-05-15T19:44:27.775Z,2.13
2023-05-15T19:46:56.302Z,2.80
2023-05-15T19:49:24.605Z,2.50
2023-05-15T19:51:53.030Z,2.40
2023-05-15T19:54:24.709Z,2.30
2023-05-15T19:57:17.729Z,1.88
2023-05-15T19:59:46.178Z,2.08
2023-05-15T20:02:15.502Z,2.20
2023-05-15T20:04:43.699Z,2.45
2023-05-15T20:07:12.268Z,2.30
2023-05-15T20:09:42.518Z,2.58
2023-05-15T20:12:11.015Z,2.00
2023-05-15T20:14:42.064Z,2.80
2023-05-15T20:17:10.303Z,6.05
2023-05-15T20:19:39.620Z,7.38
2023-05-15T20:22:07.836Z,10.65
2023-05-15T20:28:44.440Z,9.80
2023-05-15T20:31:15.717Z,8.57
2023-05-15T20:33:48.959Z,11.30
2023-05-15T20:36:25.693Z,11.95
2023-05-15T20:38:59.037Z,19.10
2023-05-15T20:41:32.040Z,19.00
2023-05-15T20:44:04.745Z,5.32
2023-05-15T20:47:23.750Z,2.72
2023-05-15T20:49:52.016Z,2.20
2023-05-15T20:52:21.702Z,2.20
2023-05-15T20:54:51.943Z,2.67
2023-05-15T20:57:22.153Z,2.60
2023-05-15T20:59:52.919Z,2.30
2023-05-15T21:02:21.333Z,2.67
2023-05-15T21:04:49.509Z,2.92
2023-05-15T21:07:18.926Z,2.90
2023-05-15T21:09:47.199Z,2.75
2023-05-15T21:12:15.604Z,2.30
2023-05-15T21:14:43.772Z,2.38
2023-05-15T21:17:14.968Z,1.77
2023-05-15T21:19:43.406Z,1.92
2023-05-15T21:22:11.504Z,1.80
2023-05-15T21:24:39.789Z,2.10
2023-05-15T21:27:08.355Z,2.10
2023-05-15T21:29:37.830Z,2.10
2023-05-15T21:32:07.226Z,2.30
2023-05-15T21:34:36.815Z,2.13
2023-05-15T21:37:05.102Z,2.10
2023-05-15T21:39:33.441Z,2.65
2023-05-15T21:42:01.571Z,2.40
2023-05-15T21:44:29.771Z,2.05
2023-05-15T21:46:58.359Z,2.33
2023-05-15T21:49:26.635Z,2.30
2023-05-15T21:51:56.254Z,2.10
2023-05-15T21:54:24.529Z,2.30
2023-05-15T21:56:52.967Z,1.80
2023-05-15T21:59:21.172Z,2.35
2023-05-15T22:01:49.626Z,2.53
2023-05-15T22:04:18.040Z,2.17
2023-05-15T22:06:47.169Z,2.20
2023-05-15T22:09:16.709Z,2.28
2023-05-15T22:11:44.951Z,2.33
2023-05-15T22:14:14.262Z,2.70
2023-05-15T22:16:42.484Z,2.40
2023-05-15T22:19:21.492Z,2.50
2023-05-15T22:21:58.905Z,2.92
2023-05-15T22:24:28.501Z,3.10
2023-05-15T22:26:56.712Z,2.58
2023-05-15T22:29:24.959Z,2.47
2023-05-15T22:31:54.183Z,2.85
2023-05-15T22:34:22.351Z,3.15
2023-05-15T22:39:29.334Z,2.90
2023-05-15T22:42:03.372Z,3.13
2023-05-15T22:44:31.629Z,3.13
2023-05-15T22:47:00.036Z,3.10
2023-05-15T22:49:28.311Z,3.33
2023-05-15T22:52:02.307Z,3.33
2023-05-15T22:54:31.885Z,3.20
2023-05-15T22:57:00.069Z,3.28
2023-05-15T22:59:28.384Z,2.90
2023-05-15T23:01:56.519Z,2.95
2023-05-15T23:04:24.704Z,3.30
2023-05-15T23:06:53.017Z,3.05
2023-05-15T23:09:22.183Z,2.90
2023-05-15T23:11:52.859Z,2.90
2023-05-15T23:14:50.748Z,2.60
2023-05-15T23:17:18.915Z,2.80
2023-05-15T23:19:47.113Z,2.80
2023-05-15T23:22:15.264Z,2.97
2023-05-15T23:24:43.521Z,3.00
2023-05-15T23:27:13.166Z,2.67
2023-05-15T23:29:41.372Z,2.72
2023-05-15T23:32:09.678Z,2.90
2023-05-15T23:34:37.912Z,2.88
2023-05-15T23:37:06.494Z,2.85
2023-05-15T23:39:36.191Z,2.65
2023-05-15T23:42:05.712Z,2.72
2023-05-15T23:44:35.208Z,2.80
2023-05-15T23:47:03.400Z,2.55
2023-05-15T23:49:32.925Z,2.53
2023-05-15T23:52:01.141Z,2.30
2023-05-15T23:54:32.992Z,2.80
2023-05-15T23:57:02.385Z,2.72
2023-05-15T23:59:32.588Z,2.53
